sensor_id;sensor_type;location;lat;lon;timestamp;P1;durP1;ratioP1;P2;durP2;ratioP2
10537;SDS011;5317;49.048;8.468;2023-05-14T00:00:27;5.93;;;4.70;;
10537;SDS011;5317;49.048;8.468;2023-05-14T00:02:56;5.13;;;4.50;;
10537;SDS011;5317;49.048;8.468;2023-05-14T00:05:23;5.70;;;4.60;;
10537;SDS011;5317;49.048;8.468;2023-05-14T00:07:50;6.00;;;4.70;;
10537;SDS011;5317;49.048;8.468;2023-05-14T00:10:17;5.33;;;4.83;;
10537;SDS011;5317;49.048;8.468;2023-05-14T00:12:45;4.83;;;4.43;;
10537;SDS011;5317;49.048;8.468;2023-05-14T00:15:12;5.03;;;4.37;;
10537;SDS011;5317;49.048;8.468;2023-05-14T00:17:39;5.13;;;4.20;;
10537;SDS011;5317;49.048;8.468;2023-05-14T00:20:08;4.40;;;4.00;;
10537;SDS011;5317;49.048;8.468;2023-05-14T00:22:36;4.67;;;4.30;;
10537;SDS011;5317;49.048;8.468;2023-05-14T00:25:04;4.97;;;4.47;;
10537;SDS011;5317;49.048;8.468;2023-05-14T00:27:32;5.07;;;4.57;;
10537;SDS011;5317;49.048;8.468;2023-05-14T00:30:03;5.17;;;4.50;;
10537;SDS011;5317;49.048;8.468;2023-05-14T00:32:31;4.77;;;4.37;;
10537;SDS011;5317;49.048;8.468;2023-05-14T00:34:58;5.10;;;4.70;;
10537;SDS011;5317;49.048;8.468;2023-05-14T00:37:26;4.80;;;4.37;;
10537;SDS011;5317;49.048;8.468;2023-05-14T00:39:53;4.73;;;4.33;;
10537;SDS011;5317;49.048;8.468;2023-05-14T00:42:20;5.43;;;4.93;;
10537;SDS011;5317;49.048;8.468;2023-05-14T00:44:47;5.00;;;4.50;;
10537;SDS011;5317;49.048;8.468;2023-05-14T00:47:14;4.70;;;4.30;;
10537;SDS011;5317;49.048;8.468;2023-05-14T00:49:41;4.63;;;4.23;;
10537;SDS011;5317;49.048;8.468;2023-05-14T00:52:08;5.67;;;4.60;;
10537;SDS011;5317;49.048;8.468;2023-05-14T00:54:37;5.13;;;4.13;;
10537;SDS011;5317;49.048;8.468;2023-05-14T00:57:05;6.63;;;4.43;;
10537;SDS011;5317;49.048;8.468;2023-05-14T00:59:32;4.60;;;4.20;;
10537;SDS011;5317;49.048;8.468;2023-05-14T01:02:00;4.77;;;4.27;;
10537;SDS011;5317;49.048;8.468;2023-05-14T01:04:27;5.13;;;4.10;;
10537;SDS011;5317;49.048;8.468;2023-05-14T01:06:58;4.60;;;4.20;;
10537;SDS011;5317;49.048;8.468;2023-05-14T01:09:35;4.77;;;4.30;;
10537;SDS011;5317;49.048;8.468;2023-05-14T01:12:10;4.87;;;4.43;;
10537;SDS011;5317;49.048;8.468;2023-05-14T01:14:47;5.47;;;4.27;;
10537;SDS011;5317;49.048;8.468;2023-05-14T01:17:20;4.93;;;4.17;;
10537;SDS011;5317;49.048;8.468;2023-05-14T01:19:47;4.70;;;4.30;;
10537;SDS011;5317;49.048;8.468;2023-05-14T01:22:17;4.80;;;4.40;;
10537;SDS011;5317;49.048;8.468;2023-05-14T01:24:44;4.80;;;4.37;;
10537;SDS011;5317;49.048;8.468;2023-05-14T01:27:12;4.50;;;4.10;;
10537;SDS011;5317;49.048;8.468;2023-05-14T01:29:44;4.63;;;4.30;;
10537;SDS011;5317;49.048;8.468;2023-05-14T01:32:17;5.07;;;4.57;;
10537;SDS011;5317;49.048;8.468;2023-05-14T01:34:47;4.87;;;4.40;;
10537;SDS011;5317;49.048;8.468;2023-05-14T01:37:17;5.37;;;4.80;;
10537;SDS011;5317;49.048;8.468;2023-05-14T01:39:45;5.07;;;4.37;;
10537;SDS011;5317;49.048;8.468;2023-05-14T01:42:13;6.33;;;4.73;;
10537;SDS011;5317;49.048;8.468;2023-05-14T01:44:40;5.77;;;4.37;;
10537;SDS011;5317;49.048;8.468;2023-05-14T01:47:08;4.67;;;4.20;;
10537;SDS011;5317;49.048;8.468;2023-05-14T01:49:35;4.87;;;4.47;;
10537;SDS011;5317;49.048;8.468;2023-05-14T01:52:03;5.50;;;4.53;;
10537;SDS011;5317;49.048;8.468;2023-05-14T01:54:32;5.57;;;4.17;;
10537;SDS011;5317;49.048;8.468;2023-05-14T01:57:01;4.60;;;4.20;;
10537;SDS011;5317;49.048;8.468;2023-05-14T01:59:27;4.90;;;4.27;;
10537;SDS011;5317;49.048;8.468;2023-05-14T02:01:54;4.87;;;4.47;;
10537;SDS011;5317;49.048;8.468;2023-05-14T02:04:21;4.83;;;4.40;;
10537;SDS011;5317;49.048;8.468;2023-05-14T02:06:48;4.93;;;4.53;;
10537;SDS011;5317;49.048;8.468;2023-05-14T02:09:16;5.47;;;4.13;;
10537;SDS011;5317;49.048;8.468;2023-05-14T02:11:44;6.03;;;4.47;;
10537;SDS011;5317;49.048;8.468;2023-05-14T02:14:12;5.33;;;4.47;;
10537;SDS011;5317;49.048;8.468;2023-05-14T02:16:39;6.13;;;4.20;;
10537;SDS011;5317;49.048;8.468;2023-05-14T02:19:06;5.00;;;4.50;;
10537;SDS011;5317;49.048;8.468;2023-05-14T02:21:33;6.90;;;4.97;;
10537;SDS011;5317;49.048;8.468;2023-05-14T02:24:00;4.77;;;4.37;;
10537;SDS011;5317;49.048;8.468;2023-05-14T02:26:27;4.87;;;4.37;;
10537;SDS011;5317;49.048;8.468;2023-05-14T02:28:57;4.63;;;4.23;;
10537;SDS011;5317;49.048;8.468;2023-05-14T02:31:24;6.73;;;4.30;;
10537;SDS011;5317;49.048;8.468;2023-05-14T02:33:50;6.67;;;4.67;;
10537;SDS011;5317;49.048;8.468;2023-05-14T02:36:17;4.83;;;4.43;;
10537;SDS011;5317;49.048;8.468;2023-05-14T02:38:44;4.70;;;4.30;;
10537;SDS011;5317;49.048;8.468;2023-05-14T02:41:11;5.07;;;4.67;;
10537;SDS011;5317;49.048;8.468;2023-05-14T02:43:38;5.17;;;4.70;;
10537;SDS011;5317;49.048;8.468;2023-05-14T02:46:06;4.70;;;4.30;;
10537;SDS011;5317;49.048;8.468;2023-05-14T02:48:33;4.90;;;4.40;;
10537;SDS011;5317;49.048;8.468;2023-05-14T02:51:00;4.77;;;4.37;;
10537;SDS011;5317;49.048;8.468;2023-05-14T02:53:27;5.27;;;4.77;;
10537;SDS011;5317;49.048;8.468;2023-05-14T02:55:54;4.40;;;4.00;;
10537;SDS011;5317;49.048;8.468;2023-05-14T02:58:21;5.93;;;4.47;;
10537;SDS011;5317;49.048;8.468;2023-05-14T03:00:48;4.37;;;3.97;;
10537;SDS011;5317;49.048;8.468;2023-05-14T03:03:17;4.80;;;4.40;;
10537;SDS011;5317;49.048;8.468;2023-05-14T03:05:45;5.53;;;5.03;;
10537;SDS011;5317;49.048;8.468;2023-05-14T03:08:11;6.87;;;4.43;;
10537;SDS011;5317;49.048;8.468;2023-05-14T03:10:38;4.70;;;4.20;;
10537;SDS011;5317;49.048;8.468;2023-05-14T03:13:05;6.27;;;4.60;;
10537;SDS011;5317;49.048;8.468;2023-05-14T03:15:32;4.60;;;4.20;;
10537;SDS011;5317;49.048;8.468;2023-05-14T03:17:59;4.47;;;4.07;;
10537;SDS011;5317;49.048;8.468;2023-05-14T03:20:27;4.90;;;4.50;;
10537;SDS011;5317;49.048;8.468;2023-05-14T03:22:54;4.87;;;4.33;;
10537;SDS011;5317;49.048;8.468;2023-05-14T03:25:21;5.43;;;4.93;;
10537;SDS011;5317;49.048;8.468;2023-05-14T03:27:47;5.90;;;4.57;;
10537;SDS011;5317;49.048;8.468;2023-05-14T03:30:14;6.70;;;4.60;;
10537;SDS011;5317;49.048;8.468;2023-05-14T03:32:41;5.10;;;4.70;;
10537;SDS011;5317;49.048;8.468;2023-05-14T03:35:08;5.10;;;4.60;;
10537;SDS011;5317;49.048;8.468;2023-05-14T03:37:36;4.87;;;4.47;;
10537;SDS011;5317;49.048;8.468;2023-05-14T03:40:04;6.03;;;4.87;;
10537;SDS011;5317;49.048;8.468;2023-05-14T03:42:32;5.10;;;4.60;;
10537;SDS011;5317;49.048;8.468;2023-05-14T03:45:02;5.43;;;4.93;;
10537;SDS011;5317;49.048;8.468;2023-05-14T03:47:29;5.30;;;4.80;;
10537;SDS011;5317;49.048;8.468;2023-05-14T03:49:57;5.27;;;4.77;;
10537;SDS011;5317;49.048;8.468;2023-05-14T03:52:23;4.57;;;4.20;;
10537;SDS011;5317;49.048;8.468;2023-05-14T03:54:53;4.67;;;4.27;;
10537;SDS011;5317;49.048;8.468;2023-05-14T03:57:20;4.90;;;4.40;;
10537;SDS011;5317;49.048;8.468;2023-05-14T03:59:47;5.57;;;4.43;;
10537;SDS011;5317;49.048;8.468;2023-05-14T04:02:14;4.70;;;4.20;;
10537;SDS011;5317;49.048;8.468;2023-05-14T04:04:40;6.30;;;4.67;;
10537;SDS011;5317;49.048;8.468;2023-05-14T04:07:07;5.17;;;4.20;;
10537;SDS011;5317;49.048;8.468;2023-05-14T04:09:34;4.83;;;4.43;;
10537;SDS011;5317;49.048;8.468;2023-05-14T04:12:02;4.93;;;4.53;;
10537;SDS011;5317;49.048;8.468;2023-05-14T04:14:30;4.73;;;4.33;;
10537;SDS011;5317;49.048;8.468;2023-05-14T04:16:57;6.47;;;4.87;;
10537;SDS011;5317;49.048;8.468;2023-05-14T04:19:23;4.70;;;4.30;;
10537;SDS011;5317;49.048;8.468;2023-05-14T04:21:50;4.53;;;4.13;;
10537;SDS011;5317;49.048;8.468;2023-05-14T04:24:17;4.40;;;4.00;;
10537;SDS011;5317;49.048;8.468;2023-05-14T04:26:44;4.70;;;4.30;;
10537;SDS011;5317;49.048;8.468;2023-05-14T04:29:12;7.77;;;4.33;;
10537;SDS011;5317;49.048;8.468;2023-05-14T04:31:39;4.30;;;3.90;;
10537;SDS011;5317;49.048;8.468;2023-05-14T04:34:07;4.67;;;4.27;;
10537;SDS011;5317;49.048;8.468;2023-05-14T04:36:34;4.90;;;4.20;;
10537;SDS011;5317;49.048;8.468;2023-05-14T04:39:02;5.07;;;4.67;;
10537;SDS011;5317;49.048;8.468;2023-05-14T04:41:30;4.90;;;4.50;;
10537;SDS011;5317;49.048;8.468;2023-05-14T04:43:57;4.70;;;4.20;;
10537;SDS011;5317;49.048;8.468;2023-05-14T04:46:28;4.20;;;3.90;;
10537;SDS011;5317;49.048;8.468;2023-05-14T04:48:55;4.43;;;4.03;;
10537;SDS011;5317;49.048;8.468;2023-05-14T04:51:22;4.43;;;4.00;;
10537;SDS011;5317;49.048;8.468;2023-05-14T04:53:51;4.90;;;4.50;;
10537;SDS011;5317;49.048;8.468;2023-05-14T04:56:17;5.50;;;4.43;;
10537;SDS011;5317;49.048;8.468;2023-05-14T04:58:45;4.50;;;4.10;;
10537;SDS011;5317;49.048;8.468;2023-05-14T05:01:12;4.70;;;4.00;;
10537;SDS011;5317;49.048;8.468;2023-05-14T05:03:40;4.13;;;3.80;;
10537;SDS011;5317;49.048;8.468;2023-05-14T05:06:07;6.13;;;4.10;;
10537;SDS011;5317;49.048;8.468;2023-05-14T05:08:35;4.67;;;4.27;;
10537;SDS011;5317;49.048;8.468;2023-05-14T05:11:02;4.70;;;4.30;;
10537;SDS011;5317;49.048;8.468;2023-05-14T05:13:29;5.13;;;4.63;;
10537;SDS011;5317;49.048;8.468;2023-05-14T05:15:57;5.43;;;4.93;;
10537;SDS011;5317;49.048;8.468;2023-05-14T05:18:24;5.17;;;4.50;;
10537;SDS011;5317;49.048;8.468;2023-05-14T05:20:52;4.67;;;4.17;;
10537;SDS011;5317;49.048;8.468;2023-05-14T05:23:20;4.80;;;4.07;;
10537;SDS011;5317;49.048;8.468;2023-05-14T05:25:47;4.57;;;4.13;;
10537;SDS011;5317;49.048;8.468;2023-05-14T05:28:14;5.37;;;4.40;;
10537;SDS011;5317;49.048;8.468;2023-05-14T05:30:41;5.23;;;4.70;;
10537;SDS011;5317;49.048;8.468;2023-05-14T05:33:09;4.80;;;4.40;;
10537;SDS011;5317;49.048;8.468;2023-05-14T05:35:36;5.50;;;4.40;;
10537;SDS011;5317;49.048;8.468;2023-05-14T05:38:04;5.00;;;4.53;;
10537;SDS011;5317;49.048;8.468;2023-05-14T05:40:31;5.00;;;4.20;;
10537;SDS011;5317;49.048;8.468;2023-05-14T05:42:59;5.23;;;4.53;;
10537;SDS011;5317;49.048;8.468;2023-05-14T05:45:26;5.00;;;4.23;;
10537;SDS011;5317;49.048;8.468;2023-05-14T05:47:53;4.57;;;4.17;;
10537;SDS011;5317;49.048;8.468;2023-05-14T05:50:20;5.13;;;4.63;;
10537;SDS011;5317;49.048;8.468;2023-05-14T05:52:47;4.97;;;4.50;;
10537;SDS011;5317;49.048;8.468;2023-05-14T05:55:15;4.90;;;4.50;;
10537;SDS011;5317;49.048;8.468;2023-05-14T05:57:42;4.63;;;4.23;;
10537;SDS011;5317;49.048;8.468;2023-05-14T06:00:09;5.50;;;4.70;;
10537;SDS011;5317;49.048;8.468;2023-05-14T06:02:38;5.30;;;4.43;;
10537;SDS011;5317;49.048;8.468;2023-05-14T06:05:06;4.70;;;4.30;;
10537;SDS011;5317;49.048;8.468;2023-05-14T06:07:33;4.47;;;4.10;;
10537;SDS011;5317;49.048;8.468;2023-05-14T06:10:01;4.80;;;4.40;;
10537;SDS011;5317;49.048;8.468;2023-05-14T06:12:29;4.53;;;4.13;;
10537;SDS011;5317;49.048;8.468;2023-05-14T06:14:56;4.60;;;4.20;;
10537;SDS011;5317;49.048;8.468;2023-05-14T06:17:24;4.37;;;3.97;;
10537;SDS011;5317;49.048;8.468;2023-05-14T06:19:51;4.70;;;4.30;;
10537;SDS011;5317;49.048;8.468;2023-05-14T06:22:18;5.00;;;4.50;;
10537;SDS011;5317;49.048;8.468;2023-05-14T06:24:45;5.37;;;4.47;;
10537;SDS011;5317;49.048;8.468;2023-05-14T06:27:12;5.60;;;5.10;;
10537;SDS011;5317;49.048;8.468;2023-05-14T06:29:40;4.80;;;4.30;;
10537;SDS011;5317;49.048;8.468;2023-05-14T06:32:07;5.37;;;4.30;;
10537;SDS011;5317;49.048;8.468;2023-05-14T06:34:34;4.93;;;4.53;;
10537;SDS011;5317;49.048;8.468;2023-05-14T06:37:01;4.60;;;4.20;;
10537;SDS011;5317;49.048;8.468;2023-05-14T06:39:28;5.07;;;4.67;;
10537;SDS011;5317;49.048;8.468;2023-05-14T06:41:55;5.03;;;4.63;;
10537;SDS011;5317;49.048;8.468;2023-05-14T06:44:22;5.33;;;4.47;;
10537;SDS011;5317;49.048;8.468;2023-05-14T06:46:50;5.30;;;4.80;;
10537;SDS011;5317;49.048;8.468;2023-05-14T06:49:17;5.20;;;4.77;;
10537;SDS011;5317;49.048;8.468;2023-05-14T06:51:44;5.20;;;4.70;;
10537;SDS011;5317;49.048;8.468;2023-05-14T06:54:11;4.63;;;4.23;;
10537;SDS011;5317;49.048;8.468;2023-05-14T06:56:38;5.00;;;4.60;;
10537;SDS011;5317;49.048;8.468;2023-05-14T06:59:05;5.43;;;4.93;;
10537;SDS011;5317;49.048;8.468;2023-05-14T07:01:32;5.10;;;4.43;;
10537;SDS011;5317;49.048;8.468;2023-05-14T07:04:00;5.13;;;4.63;;
10537;SDS011;5317;49.048;8.468;2023-05-14T07:06:27;4.70;;;4.30;;
10537;SDS011;5317;49.048;8.468;2023-05-14T07:08:54;4.93;;;4.47;;
10537;SDS011;5317;49.048;8.468;2023-05-14T07:11:21;4.60;;;4.20;;
10537;SDS011;5317;49.048;8.468;2023-05-14T07:13:48;4.93;;;4.53;;
10537;SDS011;5317;49.048;8.468;2023-05-14T07:16:15;5.00;;;4.50;;
10537;SDS011;5317;49.048;8.468;2023-05-14T07:18:42;5.43;;;4.57;;
10537;SDS011;5317;49.048;8.468;2023-05-14T07:21:10;4.80;;;4.40;;
10537;SDS011;5317;49.048;8.468;2023-05-14T07:23:37;4.40;;;4.00;;
10537;SDS011;5317;49.048;8.468;2023-05-14T07:26:04;5.20;;;4.70;;
10537;SDS011;5317;49.048;8.468;2023-05-14T07:28:31;5.20;;;4.67;;
10537;SDS011;5317;49.048;8.468;2023-05-14T07:30:58;5.07;;;4.57;;
10537;SDS011;5317;49.048;8.468;2023-05-14T07:33:26;5.03;;;4.53;;
10537;SDS011;5317;49.048;8.468;2023-05-14T07:35:53;4.67;;;4.27;;
10537;SDS011;5317;49.048;8.468;2023-05-14T07:38:21;4.73;;;4.33;;
10537;SDS011;5317;49.048;8.468;2023-05-14T07:40:48;4.80;;;4.40;;
10537;SDS011;5317;49.048;8.468;2023-05-14T07:43:15;5.20;;;4.77;;
10537;SDS011;5317;49.048;8.468;2023-05-14T07:45:42;4.67;;;4.27;;
10537;SDS011;5317;49.048;8.468;2023-05-14T07:48:09;4.93;;;4.53;;
10537;SDS011;5317;49.048;8.468;2023-05-14T07:50:35;4.90;;;4.50;;
10537;SDS011;5317;49.048;8.468;2023-05-14T07:53:02;4.80;;;4.40;;
10537;SDS011;5317;49.048;8.468;2023-05-14T07:55:31;5.33;;;4.83;;
10537;SDS011;5317;49.048;8.468;2023-05-14T07:57:58;4.67;;;4.27;;
10537;SDS011;5317;49.048;8.468;2023-05-14T08:00:25;5.13;;;4.63;;
10537;SDS011;5317;49.048;8.468;2023-05-14T08:02:53;5.27;;;4.77;;
10537;SDS011;5317;49.048;8.468;2023-05-14T08:05:20;4.50;;;4.10;;
10537;SDS011;5317;49.048;8.468;2023-05-14T08:07:47;4.90;;;4.50;;
10537;SDS011;5317;49.048;8.468;2023-05-14T08:10:14;4.60;;;4.20;;
10537;SDS011;5317;49.048;8.468;2023-05-14T08:12:42;5.23;;;4.50;;
10537;SDS011;5317;49.048;8.468;2023-05-14T08:15:09;4.60;;;4.20;;
10537;SDS011;5317;49.048;8.468;2023-05-14T08:17:38;4.77;;;4.37;;
10537;SDS011;5317;49.048;8.468;2023-05-14T08:20:05;4.90;;;4.50;;
10537;SDS011;5317;49.048;8.468;2023-05-14T08:22:33;5.00;;;4.50;;
10537;SDS011;5317;49.048;8.468;2023-05-14T08:25:00;4.50;;;4.10;;
10537;SDS011;5317;49.048;8.468;2023-05-14T08:27:28;5.70;;;4.57;;
10537;SDS011;5317;49.048;8.468;2023-05-14T08:29:56;5.13;;;4.73;;
10537;SDS011;5317;49.048;8.468;2023-05-14T08:32:23;4.40;;;4.00;;
10537;SDS011;5317;49.048;8.468;2023-05-14T08:34:50;4.20;;;3.90;;
10537;SDS011;5317;49.048;8.468;2023-05-14T08:37:16;4.03;;;3.73;;
10537;SDS011;5317;49.048;8.468;2023-05-14T08:39:43;4.40;;;4.00;;
10537;SDS011;5317;49.048;8.468;2023-05-14T08:42:11;4.10;;;3.73;;
10537;SDS011;5317;49.048;8.468;2023-05-14T08:44:41;4.10;;;3.70;;
10537;SDS011;5317;49.048;8.468;2023-05-14T08:47:14;4.70;;;4.30;;
10537;SDS011;5317;49.048;8.468;2023-05-14T08:49:45;4.40;;;4.00;;
10537;SDS011;5317;49.048;8.468;2023-05-14T08:52:14;3.90;;;3.60;;
10537;SDS011;5317;49.048;8.468;2023-05-14T08:54:43;3.83;;;3.50;;
10537;SDS011;5317;49.048;8.468;2023-05-14T08:57:12;3.93;;;3.53;;
10537;SDS011;5317;49.048;8.468;2023-05-14T08:59:40;4.27;;;3.87;;
10537;SDS011;5317;49.048;8.468;2023-05-14T09:02:07;3.93;;;3.63;;
10537;SDS011;5317;49.048;8.468;2023-05-14T09:04:38;3.90;;;3.50;;
10537;SDS011;5317;49.048;8.468;2023-05-14T09:07:06;3.87;;;3.50;;
10537;SDS011;5317;49.048;8.468;2023-05-14T09:09:33;4.37;;;3.87;;
10537;SDS011;5317;49.048;8.468;2023-05-14T09:12:00;3.50;;;3.20;;
10537;SDS011;5317;49.048;8.468;2023-05-14T09:14:27;4.10;;;3.70;;
10537;SDS011;5317;49.048;8.468;2023-05-14T09:16:54;4.40;;;3.27;;
10537;SDS011;5317;49.048;8.468;2023-05-14T09:19:21;3.20;;;2.90;;
10537;SDS011;5317;49.048;8.468;2023-05-14T09:21:49;3.23;;;3.03;;
10537;SDS011;5317;49.048;8.468;2023-05-14T09:24:19;3.40;;;3.10;;
10537;SDS011;5317;49.048;8.468;2023-05-14T09:26:49;3.47;;;3.17;;
10537;SDS011;5317;49.048;8.468;2023-05-14T09:29:19;3.83;;;3.53;;
10537;SDS011;5317;49.048;8.468;2023-05-14T09:31:46;3.30;;;2.97;;
10537;SDS011;5317;49.048;8.468;2023-05-14T09:34:22;3.80;;;3.50;;
10537;SDS011;5317;49.048;8.468;2023-05-14T09:36:50;2.93;;;2.73;;
10537;SDS011;5317;49.048;8.468;2023-05-14T09:39:21;3.60;;;3.30;;
10537;SDS011;5317;49.048;8.468;2023-05-14T09:41:48;4.43;;;3.67;;
10537;SDS011;5317;49.048;8.468;2023-05-14T09:44:16;3.70;;;3.40;;
10537;SDS011;5317;49.048;8.468;2023-05-14T09:46:43;3.50;;;3.20;;
10537;SDS011;5317;49.048;8.468;2023-05-14T09:49:10;4.27;;;3.87;;
10537;SDS011;5317;49.048;8.468;2023-05-14T09:51:38;4.40;;;3.37;;
10537;SDS011;5317;49.048;8.468;2023-05-14T09:54:06;3.77;;;3.47;;
10537;SDS011;5317;49.048;8.468;2023-05-14T09:56:34;5.07;;;3.23;;
10537;SDS011;5317;49.048;8.468;2023-05-14T09:59:04;3.60;;;3.30;;
10537;SDS011;5317;49.048;8.468;2023-05-14T10:01:31;3.47;;;3.17;;
10537;SDS011;5317;49.048;8.468;2023-05-14T10:03:58;3.60;;;3.30;;
10537;SDS011;5317;49.048;8.468;2023-05-14T10:06:29;3.43;;;3.10;;
10537;SDS011;5317;49.048;8.468;2023-05-14T10:08:59;3.70;;;3.17;;
10537;SDS011;5317;49.048;8.468;2023-05-14T10:11:30;3.40;;;3.10;;
10537;SDS011;5317;49.048;8.468;2023-05-14T10:14:00;3.40;;;3.10;;
10537;SDS011;5317;49.048;8.468;2023-05-14T10:16:32;3.57;;;3.27;;
10537;SDS011;5317;49.048;8.468;2023-05-14T10:19:04;2.97;;;2.77;;
10537;SDS011;5317;49.048;8.468;2023-05-14T10:21:33;2.77;;;2.57;;
10537;SDS011;5317;49.048;8.468;2023-05-14T10:24:02;2.77;;;2.57;;
10537;SDS011;5317;49.048;8.468;2023-05-14T10:26:35;3.47;;;3.13;;
10537;SDS011;5317;49.048;8.468;2023-05-14T10:29:04;3.53;;;3.23;;
10537;SDS011;5317;49.048;8.468;2023-05-14T10:31:44;3.57;;;3.27;;
10537;SDS011;5317;49.048;8.468;2023-05-14T10:34:31;3.83;;;3.53;;
10537;SDS011;5317;49.048;8.468;2023-05-14T10:37:08;4.30;;;3.27;;
10537;SDS011;5317;49.048;8.468;2023-05-14T10:39:39;3.97;;;3.57;;
10537;SDS011;5317;49.048;8.468;2023-05-14T10:42:09;3.53;;;3.23;;
10537;SDS011;5317;49.048;8.468;2023-05-14T10:44:37;3.70;;;3.30;;
10537;SDS011;5317;49.048;8.468;2023-05-14T10:47:11;3.97;;;3.67;;
10537;SDS011;5317;49.048;8.468;2023-05-14T10:49:38;3.90;;;3.50;;
10537;SDS011;5317;49.048;8.468;2023-05-14T10:52:06;4.50;;;3.57;;
10537;SDS011;5317;49.048;8.468;2023-05-14T10:54:34;3.87;;;3.57;;
10537;SDS011;5317;49.048;8.468;2023-05-14T10:57:01;3.47;;;3.17;;
10537;SDS011;5317;49.048;8.468;2023-05-14T10:59:30;4.00;;;3.63;;
10537;SDS011;5317;49.048;8.468;2023-05-14T11:01:59;4.13;;;3.70;;
10537;SDS011;5317;49.048;8.468;2023-05-14T11:04:30;3.67;;;3.37;;
10537;SDS011;5317;49.048;8.468;2023-05-14T11:06:57;3.50;;;3.20;;
10537;SDS011;5317;49.048;8.468;2023-05-14T11:09:25;3.53;;;3.23;;
10537;SDS011;5317;49.048;8.468;2023-05-14T11:11:53;3.43;;;3.13;;
10537;SDS011;5317;49.048;8.468;2023-05-14T11:14:19;3.53;;;3.23;;
10537;SDS011;5317;49.048;8.468;2023-05-14T11:16:49;3.43;;;3.10;;
10537;SDS011;5317;49.048;8.468;2023-05-14T11:19:16;4.03;;;3.63;;
10537;SDS011;5317;49.048;8.468;2023-05-14T11:21:47;3.40;;;3.10;;
10537;SDS011;5317;49.048;8.468;2023-05-14T11:24:14;3.50;;;3.20;;
10537;SDS011;5317;49.048;8.468;2023-05-14T11:26:40;3.87;;;3.40;;
10537;SDS011;5317;49.048;8.468;2023-05-14T11:29:08;3.73;;;3.23;;
10537;SDS011;5317;49.048;8.468;2023-05-14T11:31:36;3.70;;;3.40;;
10537;SDS011;5317;49.048;8.468;2023-05-14T11:34:06;3.57;;;3.27;;
10537;SDS011;5317;49.048;8.468;2023-05-14T11:36:35;3.97;;;3.27;;
10537;SDS011;5317;49.048;8.468;2023-05-14T11:39:02;3.80;;;3.50;;
10537;SDS011;5317;49.048;8.468;2023-05-14T11:41:29;4.40;;;4.00;;
10537;SDS011;5317;49.048;8.468;2023-05-14T11:43:57;3.70;;;3.40;;
10537;SDS011;5317;49.048;8.468;2023-05-14T11:46:25;3.67;;;3.37;;
10537;SDS011;5317;49.048;8.468;2023-05-14T11:48:54;4.60;;;4.20;;
10537;SDS011;5317;49.048;8.468;2023-05-14T11:51:23;4.33;;;3.97;;
10537;SDS011;5317;49.048;8.468;2023-05-14T11:53:50;3.90;;;3.60;;
10537;SDS011;5317;49.048;8.468;2023-05-14T11:56:16;3.97;;;3.50;;
10537;SDS011;5317;49.048;8.468;2023-05-14T11:58:46;3.83;;;3.53;;
10537;SDS011;5317;49.048;8.468;2023-05-14T12:01:13;3.77;;;3.47;;
10537;SDS011;5317;49.048;8.468;2023-05-14T12:03:41;4.20;;;3.80;;
10537;SDS011;5317;49.048;8.468;2023-05-14T12:06:08;4.10;;;3.70;;
10537;SDS011;5317;49.048;8.468;2023-05-14T12:08:36;4.70;;;4.10;;
10537;SDS011;5317;49.048;8.468;2023-05-14T12:11:03;4.57;;;4.17;;
10537;SDS011;5317;49.048;8.468;2023-05-14T12:13:31;3.53;;;3.00;;
10537;SDS011;5317;49.048;8.468;2023-05-14T12:15:58;3.97;;;3.67;;
10537;SDS011;5317;49.048;8.468;2023-05-14T12:18:27;4.10;;;3.10;;
10537;SDS011;5317;49.048;8.468;2023-05-14T12:20:58;3.37;;;3.17;;
10537;SDS011;5317;49.048;8.468;2023-05-14T12:23:28;3.43;;;3.13;;
10537;SDS011;5317;49.048;8.468;2023-05-14T12:26:01;3.80;;;3.33;;
10537;SDS011;5317;49.048;8.468;2023-05-14T12:28:30;4.30;;;3.90;;
10537;SDS011;5317;49.048;8.468;2023-05-14T12:30:57;4.13;;;3.83;;
10537;SDS011;5317;49.048;8.468;2023-05-14T12:33:24;4.03;;;3.63;;
10537;SDS011;5317;49.048;8.468;2023-05-14T12:35:52;3.80;;;3.43;;
10537;SDS011;5317;49.048;8.468;2023-05-14T12:38:21;4.03;;;3.70;;
10537;SDS011;5317;49.048;8.468;2023-05-14T12:40:48;3.70;;;3.40;;
10537;SDS011;5317;49.048;8.468;2023-05-14T12:43:16;3.70;;;3.40;;
10537;SDS011;5317;49.048;8.468;2023-05-14T12:45:43;5.00;;;3.67;;
10537;SDS011;5317;49.048;8.468;2023-05-14T12:48:12;3.30;;;3.00;;
10537;SDS011;5317;49.048;8.468;2023-05-14T12:50:39;4.43;;;3.47;;
10537;SDS011;5317;49.048;8.468;2023-05-14T12:53:06;3.50;;;3.20;;
10537;SDS011;5317;49.048;8.468;2023-05-14T12:55:33;3.87;;;3.43;;
10537;SDS011;5317;49.048;8.468;2023-05-14T12:58:00;3.50;;;3.20;;
10537;SDS011;5317;49.048;8.468;2023-05-14T13:00:29;3.37;;;3.07;;
10537;SDS011;5317;49.048;8.468;2023-05-14T13:02:56;3.43;;;3.13;;
10537;SDS011;5317;49.048;8.468;2023-05-14T13:05:23;3.83;;;3.53;;
10537;SDS011;5317;49.048;8.468;2023-05-14T13:07:51;4.07;;;3.63;;
10537;SDS011;5317;49.048;8.468;2023-05-14T13:10:18;4.43;;;3.03;;
10537;SDS011;5317;49.048;8.468;2023-05-14T13:12:45;3.40;;;3.10;;
10537;SDS011;5317;49.048;8.468;2023-05-14T13:15:12;3.20;;;2.63;;
10537;SDS011;5317;49.048;8.468;2023-05-14T13:17:40;3.50;;;3.20;;
10537;SDS011;5317;49.048;8.468;2023-05-14T13:20:07;3.10;;;2.90;;
10537;SDS011;5317;49.048;8.468;2023-05-14T13:22:34;3.20;;;3.00;;
10537;SDS011;5317;49.048;8.468;2023-05-14T13:25:02;3.40;;;3.10;;
10537;SDS011;5317;49.048;8.468;2023-05-14T13:27:29;3.50;;;3.20;;
10537;SDS011;5317;49.048;8.468;2023-05-14T13:29:57;3.50;;;3.00;;
10537;SDS011;5317;49.048;8.468;2023-05-14T13:32:24;3.03;;;2.83;;
10537;SDS011;5317;49.048;8.468;2023-05-14T13:34:52;3.20;;;3.00;;
10537;SDS011;5317;49.048;8.468;2023-05-14T13:37:19;3.17;;;2.97;;
10537;SDS011;5317;49.048;8.468;2023-05-14T13:39:46;3.00;;;2.80;;
10537;SDS011;5317;49.048;8.468;2023-05-14T13:42:13;3.53;;;3.23;;
10537;SDS011;5317;49.048;8.468;2023-05-14T13:44:40;3.20;;;2.90;;
10537;SDS011;5317;49.048;8.468;2023-05-14T13:47:07;3.27;;;2.97;;
10537;SDS011;5317;49.048;8.468;2023-05-14T13:49:34;3.30;;;3.00;;
10537;SDS011;5317;49.048;8.468;2023-05-14T13:52:02;3.43;;;3.13;;
10537;SDS011;5317;49.048;8.468;2023-05-14T13:54:29;2.70;;;2.50;;
10537;SDS011;5317;49.048;8.468;2023-05-14T13:56:56;3.40;;;3.10;;
10537;SDS011;5317;49.048;8.468;2023-05-14T13:59:23;3.47;;;3.17;;
10537;SDS011;5317;49.048;8.468;2023-05-14T14:01:50;3.10;;;2.90;;
10537;SDS011;5317;49.048;8.468;2023-05-14T14:04:17;3.37;;;3.07;;
10537;SDS011;5317;49.048;8.468;2023-05-14T14:06:44;3.17;;;2.87;;
10537;SDS011;5317;49.048;8.468;2023-05-14T14:09:12;3.10;;;2.90;;
10537;SDS011;5317;49.048;8.468;2023-05-14T14:11:39;3.20;;;2.60;;
10537;SDS011;5317;49.048;8.468;2023-05-14T14:14:06;3.13;;;2.93;;
10537;SDS011;5317;49.048;8.468;2023-05-14T14:16:33;3.10;;;2.90;;
10537;SDS011;5317;49.048;8.468;2023-05-14T14:19:00;3.03;;;2.80;;
10537;SDS011;5317;49.048;8.468;2023-05-14T14:21:26;3.53;;;3.23;;
10537;SDS011;5317;49.048;8.468;2023-05-14T14:23:53;3.00;;;2.80;;
10537;SDS011;5317;49.048;8.468;2023-05-14T14:26:22;2.90;;;2.70;;
10537;SDS011;5317;49.048;8.468;2023-05-14T14:28:49;3.23;;;2.80;;
10537;SDS011;5317;49.048;8.468;2023-05-14T14:31:15;4.00;;;3.10;;
10537;SDS011;5317;49.048;8.468;2023-05-14T14:33:42;3.00;;;2.70;;
10537;SDS011;5317;49.048;8.468;2023-05-14T14:36:09;3.10;;;2.90;;
10537;SDS011;5317;49.048;8.468;2023-05-14T14:38:36;3.50;;;3.20;;
10537;SDS011;5317;49.048;8.468;2023-05-14T14:41:04;2.77;;;2.57;;
10537;SDS011;5317;49.048;8.468;2023-05-14T14:43:33;2.83;;;2.47;;
10537;SDS011;5317;49.048;8.468;2023-05-14T14:46:00;2.60;;;2.40;;
10537;SDS011;5317;49.048;8.468;2023-05-14T14:48:28;2.93;;;2.60;;
10537;SDS011;5317;49.048;8.468;2023-05-14T14:50:59;2.73;;;2.53;;
10537;SDS011;5317;49.048;8.468;2023-05-14T14:53:28;3.00;;;2.80;;
10537;SDS011;5317;49.048;8.468;2023-05-14T14:55:55;3.50;;;2.90;;
10537;SDS011;5317;49.048;8.468;2023-05-14T14:58:23;2.80;;;2.60;;
10537;SDS011;5317;49.048;8.468;2023-05-14T15:00:52;2.63;;;2.43;;
10537;SDS011;5317;49.048;8.468;2023-05-14T15:03:21;2.80;;;2.60;;